Time;durP1;ratioP1;P1;durP2;ratioP2;P2;SDS_P1;SDS_P2;PMS_P1;PMS_P2;Temp;Humidity;BMP_temperature;BMP_pressure;BME280_temperature;BME280_humidity;BME280_pressure;Samples;Min_cycle;Max_cycle;Signal;HPM_P1;HPM_P2
2021/01/19 00:00:12;;;;;;;6.15;3.03;;;3.70;99.90;;;;;;5068108;28;20221;-77
2021/01/19 00:02:39;;;;;;;8.45;3.60;;;3.80;99.90;;;;;;5091784;28;20217;-76
2021/01/19 00:05:07;;;;;;;5.35;2.70;;;3.50;99.90;;;;;;5084045;28;20222;-77
2021/01/19 00:07:33;;;;;;;8.50;3.60;;;3.70;99.90;;;;;;5079874;28;20259;-78
2021/01/19 00:10:01;;;;;;;5.20;2.95;;;3.90;99.90;;;;;;5070154;28;20205;-78
2021/01/19 00:12:28;;;;;;;6.25;3.08;;;3.80;99.90;;;;;;5056479;28;20215;-78
2021/01/19 00:14:54;;;;;;;6.03;3.30;;;3.70;99.90;;;;;;5059449;28;20266;-78
2021/01/19 00:17:21;;;;;;;5.35;3.15;;;3.50;99.90;;;;;;5063981;28;20206;-78
2021/01/19 00:19:47;;;;;;;4.63;2.97;;;3.70;99.90;;;;;;5072053;28;20312;-78
2021/01/19 00:22:14;;;;;;;10.73;3.22;;;3.40;99.90;;;;;;5056390;28;20280;-78
2021/01/19 00:24:40;;;;;;;8.10;2.80;;;3.50;99.90;;;;;;5062954;28;20221;-78
2021/01/19 00:27:08;;;;;;;6.60;3.20;;;3.70;99.90;;;;;;5076603;28;20226;-78
2021/01/19 00:29:34;;;;;;;4.43;2.45;;;3.40;99.90;;;;;;5075715;28;20278;-77
2021/01/19 00:32:01;;;;;;;5.15;2.50;;;3.40;99.90;;;;;;5075967;28;20603;-78
2021/01/19 00:34:27;;;;;;;6.05;2.88;;;3.30;99.90;;;;;;5075974;28;20210;-78
2021/01/19 00:36:54;;;;;;;6.50;3.15;;;3.60;99.90;;;;;;5074884;28;20241;-78
2021/01/19 00:39:20;;;;;;;5.85;2.58;;;3.50;99.90;;;;;;5076492;28;20210;-78
2021/01/19 00:41:47;;;;;;;4.13;2.65;;;3.50;99.90;;;;;;5074412;28;20295;-78
2021/01/19 00:44:14;;;;;;;6.85;2.92;;;3.50;99.90;;;;;;5077234;28;20217;-78
2021/01/19 00:46:41;;;;;;;5.78;3.00;;;3.50;99.90;;;;;;5078842;28;20251;-78
2021/01/19 00:49:07;;;;;;;5.78;3.08;;;3.30;99.90;;;;;;5080400;28;20260;-77
2021/01/19 00:51:34;;;;;;;5.05;3.00;;;3.30;99.90;;;;;;5077835;28;20209;-78
2021/01/19 00:54:01;;;;;;;7.53;2.97;;;3.40;99.90;;;;;;5076565;28;20576;-78
2021/01/19 00:56:35;;;;;;;4.25;2.10;;;3.40;99.90;;;;;;5075208;28;20241;-78
2021/01/19 00:59:02;;;;;;;6.65;2.35;;;3.30;99.90;;;;;;5070474;28;20197;-78
2021/01/19 01:01:30;;;;;;;5.70;2.40;;;3.50;99.90;;;;;;5074169;28;20225;-78
2021/01/19 01:03:57;;;;;;;5.50;2.70;;;3.60;99.90;;;;;;5075077;28;20210;-78
2021/01/19 01:06:24;;;;;;;4.30;2.53;;;3.60;99.90;;;;;;5075631;28;20222;-78
2021/01/19 01:08:50;;;;;;;6.47;2.70;;;3.40;99.90;;;;;;5074067;28;20263;-78
2021/01/19 01:11:17;;;;;;;7.13;3.30;;;3.40;99.90;;;;;;5069390;28;20523;-78
2021/01/19 01:13:45;;;;;;;5.15;2.92;;;3.50;99.90;;;;;;5073250;28;20198;-79
2021/01/19 01:16:11;;;;;;;6.80;3.17;;;3.20;99.90;;;;;;5074305;28;20214;-78
2021/01/19 01:18:39;;;;;;;6.15;2.90;;;3.30;99.90;;;;;;5074984;28;20213;-78
2021/01/19 01:21:09;;;;;;;4.03;2.50;;;3.20;99.90;;;;;;5076421;28;20692;-78
2021/01/19 01:23:36;;;;;;;5.32;2.90;;;3.20;99.90;;;;;;5062030;28;20225;-78
2021/01/19 01:26:02;;;;;;;4.82;2.40;;;3.30;99.90;;;;;;5055208;28;20223;-79
2021/01/19 01:28:29;;;;;;;7.03;4.25;;;3.20;99.90;;;;;;5063067;28;20201;-78
2021/01/19 01:30:55;;;;;;;5.30;2.72;;;3.40;99.90;;;;;;5074397;28;20206;-79
2021/01/19 01:33:22;;;;;;;10.45;2.90;;;3.50;99.90;;;;;;5073891;28;20206;-78
2021/01/19 01:35:49;;;;;;;10.70;3.63;;;3.30;99.90;;;;;;5073080;28;20335;-78
2021/01/19 01:38:16;;;;;;;4.80;2.38;;;3.50;99.90;;;;;;5067604;28;20612;-78
2021/01/19 01:40:42;;;;;;;6.65;2.70;;;3.30;99.90;;;;;;5071092;28;20301;-78
2021/01/19 01:43:13;;;;;;;4.85;3.20;;;3.30;99.90;;;;;;5070520;28;20198;-78
2021/01/19 01:45:41;;;;;;;5.10;2.47;;;3.20;99.90;;;;;;5070485;28;20631;-78
2021/01/19 01:48:09;;;;;;;5.00;2.47;;;3.20;99.90;;;;;;5070301;28;20643;-78
2021/01/19 01:50:37;;;;;;;4.03;2.20;;;3.10;99.90;;;;;;5073229;28;20202;-77
2021/01/19 01:53:05;;;;;;;7.47;3.40;;;3.20;99.90;;;;;;5073793;28;20255;-78
2021/01/19 01:55:31;;;;;;;5.72;2.70;;;3.10;99.90;;;;;;5072925;28;20901;-79
2021/01/19 01:57:58;;;;;;;8.60;2.75;;;3.10;99.90;;;;;;5073238;28;20220;-78
2021/01/19 02:00:24;;;;;;;7.05;2.83;;;3.10;99.90;;;;;;5073685;28;20237;-78
2021/01/19 02:02:52;;;;;;;5.20;2.40;;;3.20;99.90;;;;;;5073468;28;20210;-79
2021/01/19 02:05:20;;;;;;;5.90;3.00;;;3.50;99.90;;;;;;5073779;28;20324;-78
2021/01/19 02:08:08;;;;;;;5.43;2.13;;;3.50;99.90;;;;;;5066981;28;20215;-78
2021/01/19 02:10:48;;;;;;;4.25;2.40;;;3.10;99.90;;;;;;5055791;28;20260;-79
2021/01/19 02:13:23;;;;;;;4.60;2.65;;;3.20;99.90;;;;;;5056420;28;20229;-78
2021/01/19 02:15:57;;;;;;;4.45;2.40;;;3.20;99.90;;;;;;5059083;28;20218;-79
2021/01/19 02:18:46;;;;;;;4.63;2.40;;;3.30;99.90;;;;;;5058759;28;20217;-78
2021/01/19 02:21:42;;;;;;;6.90;2.97;;;3.30;99.90;;;;;;5071561;28;20414;-78
2021/01/19 02:24:13;;;;;;;6.30;2.90;;;3.20;99.90;;;;;;5030119;28;20210;-78
2021/01/19 02:27:08;;;;;;;5.70;2.35;;;3.20;99.90;;;;;;5053412;28;20255;-78
2021/01/19 02:30:12;;;;;;;8.25;3.00;;;3.20;99.90;;;;;;5050389;28;20210;-78
2021/01/19 02:32:53;;;;;;;7.65;3.10;;;3.20;99.90;;;;;;5061095;28;20206;-78
2021/01/19 02:35:24;;;;;;;6.40;2.33;;;3.30;99.90;;;;;;5070853;28;20283;-78
2021/01/19 02:37:58;;;;;;;4.40;2.30;;;3.50;99.90;;;;;;5068635;28;20206;-78
2021/01/19 02:40:24;;;;;;;7.30;2.88;;;3.70;99.90;;;;;;5069818;28;20218;-78
2021/01/19 02:43:07;;;;;;;7.13;3.25;;;3.80;99.90;;;;;;5070137;28;20214;-78
2021/01/19 02:45:34;;;;;;;4.88;3.08;;;3.50;99.90;;;;;;5071890;28;20252;-78
2021/01/19 02:48:02;;;;;;;6.97;3.10;;;3.40;99.90;;;;;;5073176;28;20210;-78
2021/01/19 02:50:29;;;;;;;5.07;2.00;;;3.10;99.90;;;;;;5063082;28;20199;-78
2021/01/19 02:52:57;;;;;;;4.50;2.60;;;3.30;99.90;;;;;;5052726;28;20287;-78
2021/01/19 02:55:23;;;;;;;4.65;2.50;;;3.20;99.90;;;;;;5055795;28;20230;-78
2021/01/19 02:58:06;;;;;;;5.50;2.40;;;3.10;99.90;;;;;;5056496;28;20215;-78
2021/01/19 03:00:44;;;;;;;5.55;2.50;;;3.00;99.90;;;;;;5053724;28;20222;-78
2021/01/19 03:03:14;;;;;;;5.65;2.78;;;3.10;99.90;;;;;;5055908;28;20207;-78
2021/01/19 03:05:43;;;;;;;5.10;2.60;;;3.10;99.90;;;;;;5073666;28;20610;-79
2021/01/19 03:08:12;;;;;;;5.82;2.42;;;3.10;99.90;;;;;;5069491;28;20202;-78
2021/01/19 03:10:41;;;;;;;6.35;2.67;;;3.20;99.90;;;;;;5053048;28;20198;-79
2021/01/19 03:13:12;;;;;;;5.45;2.10;;;3.20;99.90;;;;;;5053295;28;20206;-78
2021/01/19 03:15:38;;;;;;;4.07;2.25;;;3.40;99.90;;;;;;5064344;28;20289;-78
2021/01/19 03:18:05;;;;;;;4.45;2.78;;;3.50;99.90;;;;;;5074324;28;20209;-78
2021/01/19 03:20:33;;;;;;;4.38;2.40;;;3.40;99.90;;;;;;5073798;28;20222;-78
2021/01/19 03:23:00;;;;;;;5.45;2.30;;;3.50;99.90;;;;;;5075272;28;20361;-77
2021/01/19 03:25:27;;;;;;;5.43;2.60;;;3.50;99.90;;;;;;5073638;28;20314;-78
2021/01/19 03:27:53;;;;;;;5.65;2.42;;;3.80;99.90;;;;;;5053079;28;20210;-78
2021/01/19 03:30:20;;;;;;;8.07;2.53;;;3.50;99.90;;;;;;5051084;28;20227;-77
2021/01/19 03:32:47;;;;;;;7.00;2.42;;;3.80;99.90;;;;;;5072851;28;20644;-78
2021/01/19 03:35:13;;;;;;;8.20;2.70;;;3.70;99.90;;;;;;5074544;28;20240;-78
2021/01/19 03:37:41;;;;;;;4.72;2.30;;;3.50;99.90;;;;;;5069779;28;20202;-78
2021/01/19 03:40:09;;;;;;;3.78;2.03;;;3.70;99.90;;;;;;5052171;28;20264;-78
2021/01/19 03:42:35;;;;;;;3.95;2.10;;;3.60;99.90;;;;;;5052444;28;20659;-78
2021/01/19 03:45:02;;;;;;;4.88;2.15;;;3.60;99.90;;;;;;5052507;28;20206;-77
2021/01/19 03:47:29;;;;;;;4.75;2.40;;;3.60;99.90;;;;;;5052388;28;20217;-77
2021/01/19 03:49:55;;;;;;;4.88;2.10;;;3.60;99.90;;;;;;5052076;28;20214;-77
2021/01/19 03:52:22;;;;;;;4.00;2.03;;;3.70;99.90;;;;;;5051889;28;20213;-78
2021/01/19 03:54:49;;;;;;;4.32;2.28;;;3.80;99.90;;;;;;5051650;28;20252;-77
2021/01/19 03:57:16;;;;;;;6.15;2.05;;;3.80;99.90;;;;;;5051742;28;20207;-77
2021/01/19 03:59:42;;;;;;;4.30;2.00;;;3.60;99.90;;;;;;5068635;28;20197;-77
2021/01/19 04:02:09;;;;;;;4.80;1.95;;;3.70;99.90;;;;;;5073541;28;20222;-77
2021/01/19 04:04:35;;;;;;;6.70;2.75;;;3.60;99.90;;;;;;5071669;28;20223;-76
2021/01/19 04:07:02;;;;;;;5.60;2.10;;;3.70;99.90;;;;;;5073189;28;20256;-77
2021/01/19 04:09:28;;;;;;;5.38;2.78;;;3.50;99.90;;;;;;5074192;28;20214;-77
2021/01/19 04:11:56;;;;;;;5.97;2.10;;;3.70;99.90;;;;;;5068491;28;20706;-77
2021/01/19 04:14:22;;;;;;;5.75;2.58;;;3.40;99.90;;;;;;5070518;28;20202;-77
2021/01/19 04:16:49;;;;;;;3.78;1.80;;;3.50;99.90;;;;;;5071448;28;20225;-78
2021/01/19 04:19:15;;;;;;;4.30;1.95;;;3.40;99.90;;;;;;5073722;28;20213;-78
2021/01/19 04:21:42;;;;;;;4.25;2.25;;;3.50;99.90;;;;;;5072971;28;20233;-78
2021/01/19 04:24:09;;;;;;;4.30;2.00;;;3.40;99.90;;;;;;5074194;28;20213;-78
2021/01/19 04:26:35;;;;;;;4.40;1.85;;;3.50;99.90;;;;;;5072837;28;20233;-78
2021/01/19 04:29:03;;;;;;;4.00;2.10;;;3.30;99.90;;;;;;5072336;28;20236;-77
2021/01/19 04:31:29;;;;;;;7.72;2.80;;;3.40;99.90;;;;;;5072124;28;20206;-77
2021/01/19 04:33:56;;;;;;;5.45;2.40;;;3.50;99.90;;;;;;5071236;28;20251;-77
2021/01/19 04:36:22;;;;;;;4.38;1.92;;;3.40;99.90;;;;;;5070346;28;20251;-77
2021/01/19 04:38:49;;;;;;;6.65;2.42;;;3.30;99.90;;;;;;5068333;28;20213;-77
2021/01/19 04:41:17;;;;;;;5.05;2.20;;;3.40;99.90;;;;;;5050883;28;20214;-76
2021/01/19 04:43:44;;;;;;;5.55;2.30;;;3.40;99.90;;;;;;5051275;28;20272;-77
2021/01/19 04:46:12;;;;;;;8.38;1.90;;;3.50;99.90;;;;;;5050726;28;20601;-77
2021/01/19 04:48:42;;;;;;;3.78;2.20;;;3.20;99.90;;;;;;5051322;28;20522;-77
2021/01/19 04:51:16;;;;;;;6.72;2.22;;;3.40;99.90;;;;;;5050645;28;20503;-77
2021/01/19 04:53:50;;;;;;;7.45;2.58;;;3.40;99.90;;;;;;5062869;28;20671;-77
2021/01/19 04:56:21;;;;;;;5.28;2.03;;;3.20;99.90;;;;;;5071602;28;20268;-77
2021/01/19 04:58:54;;;;;;;5.85;2.22;;;3.30;99.90;;;;;;5070655;28;20210;-77
2021/01/19 05:01:38;;;;;;;3.92;2.00;;;3.30;99.90;;;;;;5070571;28;20230;-77
2021/01/19 05:04:31;;;;;;;5.15;2.15;;;3.50;99.90;;;;;;5071922;28;20206;-77
2021/01/19 05:07:28;;;;;;;4.78;2.30;;;3.60;99.90;;;;;;5071170;28;20253;-77
2021/01/19 05:13:15;;;;;;;3.65;1.77;;;3.60;99.90;;;;;;5062434;28;20212;-77
2021/01/19 05:15:44;;;;;;;4.70;2.17;;;3.30;99.90;;;;;;5072925;28;20233;-78
2021/01/19 05:18:13;;;;;;;4.78;2.80;;;3.40;99.90;;;;;;5072794;28;20652;-77
2021/01/19 05:20:45;;;;;;;7.32;2.70;;;3.30;99.90;;;;;;5071692;28;20728;-78
2021/01/19 05:23:21;;;;;;;5.00;2.38;;;3.10;99.90;;;;;;5074852;28;20248;-78
2021/01/19 05:25:52;;;;;;;5.70;2.25;;;3.30;99.90;;;;;;5074733;28;20252;-78
2021/01/19 05:28:20;;;;;;;5.50;2.78;;;3.30;99.90;;;;;;5075593;28;20236;-78
2021/01/19 05:30:51;;;;;;;4.80;2.30;;;3.40;99.90;;;;;;5075906;28;20259;-78
2021/01/19 05:33:19;;;;;;;6.65;2.80;;;3.20;99.90;;;;;;5074831;28;20217;-78
2021/01/19 05:35:46;;;;;;;8.65;2.90;;;3.30;99.90;;;;;;5075482;28;20233;-78
2021/01/19 05:38:12;;;;;;;4.70;2.72;;;3.10;99.90;;;;;;5062901;28;20213;-78
2021/01/19 05:40:43;;;;;;;5.18;2.90;;;3.10;99.90;;;;;;5052009;28;20661;-79
2021/01/19 05:43:11;;;;;;;4.32;2.60;;;3.10;99.90;;;;;;5065294;28;20209;-78
2021/01/19 05:45:38;;;;;;;5.20;2.45;;;3.00;99.90;;;;;;5071908;28;20230;-78
2021/01/19 05:48:14;;;;;;;6.20;2.85;;;3.20;99.90;;;;;;5076468;28;20201;-78
2021/01/19 05:50:43;;;;;;;5.80;2.80;;;3.20;99.90;;;;;;5075910;28;20201;-78
2021/01/19 05:53:13;;;;;;;6.45;2.67;;;3.20;99.90;;;;;;5073719;28;20206;-78
2021/01/19 05:55:42;;;;;;;5.75;2.60;;;3.10;99.90;;;;;;5071709;28;20226;-77
2021/01/19 05:58:16;;;;;;;6.15;3.38;;;3.10;99.90;;;;;;5071821;28;20205;-78
2021/01/19 06:00:43;;;;;;;7.10;3.05;;;3.10;99.90;;;;;;5070802;28;20662;-78
2021/01/19 06:03:17;;;;;;;5.03;2.28;;;3.10;99.90;;;;;;5071405;28;20206;-77
2021/01/19 06:05:44;;;;;;;9.55;3.28;;;3.10;99.90;;;;;;5071463;28;20256;-77
2021/01/19 06:08:11;;;;;;;7.70;2.88;;;3.10;99.90;;;;;;5062927;28;20228;-78
2021/01/19 06:10:38;;;;;;;7.43;2.70;;;2.90;99.90;;;;;;5057874;28;20236;-78
2021/01/19 06:13:14;;;;;;;4.85;2.45;;;2.90;99.90;;;;;;5073705;28;20202;-78
2021/01/19 06:15:41;;;;;;;5.25;3.30;;;3.20;99.90;;;;;;5068613;28;20286;-78
2021/01/19 06:18:08;;;;;;;5.68;3.20;;;3.00;99.90;;;;;;5053414;28;20217;-79
2021/01/19 06:20:40;;;;;;;6.43;2.90;;;2.90;99.90;;;;;;5065042;28;20225;-78
2021/01/19 06:23:09;;;;;;;5.90;2.75;;;3.10;99.90;;;;;;5075285;28;20233;-78
2021/01/19 06:25:36;;;;;;;7.72;2.90;;;3.10;99.90;;;;;;5073753;28;20645;-80
2021/01/19 06:28:09;;;;;;;5.78;3.08;;;3.10;99.90;;;;;;5071898;28;20767;-77
2021/01/19 06:30:35;;;;;;;7.15;3.03;;;2.90;99.90;;;;;;5070987;28;20235;-77
2021/01/19 06:33:03;;;;;;;5.60;2.83;;;3.00;99.90;;;;;;5070469;28;20213;-78
2021/01/19 06:35:40;;;;;;;5.82;2.53;;;3.00;99.90;;;;;;5051144;28;20246;-78
2021/01/19 06:38:08;;;;;;;7.80;2.60;;;2.90;99.90;;;;;;5057857;28;20217;-78
2021/01/19 06:40:38;;;;;;;6.18;3.00;;;3.00;99.90;;;;;;5073539;28;20226;-78
2021/01/19 06:43:06;;;;;;;14.25;3.40;;;2.90;99.90;;;;;;5074229;28;20242;-78
2021/01/19 06:45:33;;;;;;;5.40;2.88;;;2.80;99.90;;;;;;5073930;28;20229;-78
2021/01/19 06:48:02;;;;;;;8.77;2.83;;;3.00;99.90;;;;;;5073595;28;20575;-78
2021/01/19 06:50:30;;;;;;;4.82;2.80;;;3.00;99.90;;;;;;5073599;28;20392;-79
2021/01/19 06:53:14;;;;;;;6.25;3.20;;;2.80;99.90;;;;;;5072938;28;20220;-79
2021/01/19 06:55:51;;;;;;;4.68;2.22;;;2.90;99.90;;;;;;5072022;28;20245;-77
2021/01/19 06:58:29;;;;;;;5.60;3.35;;;2.90;99.90;;;;;;5065105;28;20576;-77
2021/01/19 07:01:00;;;;;;;7.78;3.35;;;2.70;99.90;;;;;;5053798;28;20553;-77
2021/01/19 07:03:27;;;;;;;4.88;2.78;;;3.00;99.90;;;;;;5052399;28;20268;-78
2021/01/19 07:06:00;;;;;;;7.45;2.88;;;2.70;99.90;;;;;;5050871;28;20223;-77
2021/01/19 07:09:03;;;;;;;10.98;4.68;;;2.70;99.90;;;;;;5063856;28;20221;-77
2021/01/19 07:11:58;;;;;;;5.95;3.08;;;2.70;99.90;;;;;;5072617;28;20518;-77
2021/01/19 07:14:40;;;;;;;8.43;2.55;;;2.80;99.90;;;;;;5066304;28;20281;-78
2021/01/19 07:17:09;;;;;;;5.28;2.90;;;2.80;99.90;;;;;;5054926;28;20309;-79
2021/01/19 07:19:48;;;;;;;4.78;2.58;;;2.90;99.90;;;;;;5057402;28;20201;-78
2021/01/19 07:22:47;;;;;;;4.72;2.50;;;2.80;99.90;;;;;;5074839;28;20313;-79
2021/01/19 07:25:14;;;;;;;7.50;2.80;;;2.70;99.90;;;;;;5056114;28;20222;-79
2021/01/19 07:27:42;;;;;;;4.53;2.78;;;2.60;99.90;;;;;;5074186;28;20273;-79
2021/01/19 07:30:11;;;;;;;9.07;3.30;;;2.80;99.90;;;;;;5074850;28;20198;-78
2021/01/19 07:32:39;;;;;;;7.95;3.72;;;2.90;99.90;;;;;;5075863;28;20205;-79
2021/01/19 07:35:07;;;;;;;8.73;3.33;;;2.80;99.90;;;;;;5077873;28;20205;-78
2021/01/19 07:37:35;;;;;;;10.38;3.85;;;2.70;99.90;;;;;;5076031;28;20279;-79
2021/01/19 07:40:16;;;;;;;10.15;3.40;;;2.80;99.90;;;;;;5055172;28;20206;-79
2021/01/19 07:42:43;;;;;;;6.75;3.00;;;2.70;99.90;;;;;;5054737;28;20226;-78
2021/01/19 07:45:10;;;;;;;5.30;3.15;;;2.80;99.90;;;;;;5054636;28;20227;-78
2021/01/19 07:47:39;;;;;;;6.75;3.72;;;2.60;99.90;;;;;;5055686;28;20243;-78
2021/01/19 07:50:10;;;;;;;8.50;3.97;;;2.70;99.90;;;;;;5055006;28;20221;-77
2021/01/19 07:52:38;;;;;;;5.78;3.50;;;2.60;99.90;;;;;;5055754;28;20285;-78
2021/01/19 07:55:23;;;;;;;8.80;4.13;;;2.60;99.90;;;;;;5071742;28;20241;-78
2021/01/19 07:57:52;;;;;;;6.93;3.63;;;2.80;99.90;;;;;;5072782;28;20206;-78
2021/01/19 08:00:24;;;;;;;7.80;3.60;;;2.80;99.90;;;;;;5072501;28;20210;-78
2021/01/19 08:03:03;;;;;;;13.98;3.60;;;2.80;99.90;;;;;;5065999;28;20276;-78
2021/01/19 08:05:30;;;;;;;9.75;4.80;;;3.00;99.90;;;;;;5057317;28;20227;-78
2021/01/19 08:07:57;;;;;;;8.80;3.83;;;2.90;99.90;;;;;;5063240;28;20214;-79
2021/01/19 08:10:26;;;;;;;6.60;3.25;;;3.00;99.90;;;;;;5076147;28;20316;-78
2021/01/19 08:12:55;;;;;;;8.63;3.63;;;3.20;99.90;;;;;;5075958;28;20239;-78
2021/01/19 08:15:25;;;;;;;17.10;3.97;;;3.00;99.90;;;;;;5075986;28;20230;-78
2021/01/19 08:17:53;;;;;;;9.02;4.22;;;3.30;99.90;;;;;;5072006;28;20285;-78
2021/01/19 08:20:25;;;;;;;8.10;3.70;;;3.20;99.90;;;;;;5065216;28;20209;-77
2021/01/19 08:22:52;;;;;;;9.07;3.33;;;3.30;99.90;;;;;;5076630;28;20634;-77
2021/01/19 08:25:28;;;;;;;6.72;3.55;;;3.20;99.90;;;;;;5075106;28;20230;-78
2021/01/19 08:27:59;;;;;;;6.95;3.72;;;3.10;99.90;;;;;;5075920;28;20205;-79
2021/01/19 08:30:27;;;;;;;6.57;2.72;;;3.20;99.90;;;;;;5079748;28;20202;-78
2021/01/19 08:32:54;;;;;;;9.30;3.42;;;3.40;99.90;;;;;;5074611;28;20360;-78
2021/01/19 08:35:22;;;;;;;8.43;3.60;;;3.30;99.90;;;;;;5059701;28;20234;-77
2021/01/19 08:37:51;;;;;;;7.43;3.80;;;3.40;99.90;;;;;;5055766;28;20206;-77
2021/01/19 08:40:23;;;;;;;8.52;3.58;;;3.30;99.90;;;;;;5071123;28;20354;-77
2021/01/19 08:42:50;;;;;;;8.95;4.13;;;3.20;99.90;;;;;;5070803;28;20268;-77
2021/01/19 08:45:28;;;;;;;7.05;3.63;;;3.40;99.90;;;;;;5070402;28;20613;-78
2021/01/19 08:47:57;;;;;;;8.15;3.65;;;3.40;99.90;;;;;;5070941;28;20213;-77
2021/01/19 08:50:25;;;;;;;8.15;4.75;;;3.60;99.90;;;;;;5072214;28;20199;-77
2021/01/19 08:52:52;;;;;;;17.25;4.05;;;3.60;99.90;;;;;;5052255;28;20249;-77
2021/01/19 08:55:20;;;;;;;9.43;5.55;;;3.70;99.90;;;;;;5052841;28;20230;-78
2021/01/19 08:57:55;;;;;;;7.68;3.22;;;3.70;99.90;;;;;;5057432;28;20214;-78
2021/01/19 09:00:27;;;;;;;7.50;3.72;;;4.00;99.90;;;;;;5054296;28;20202;-78
2021/01/19 09:02:55;;;;;;;6.68;3.47;;;4.00;99.90;;;;;;5054241;28;20203;-78
2021/01/19 09:05:29;;;;;;;14.07;5.03;;;3.80;99.90;;;;;;5052715;28;20237;-78
2021/01/19 09:07:57;;;;;;;12.10;6.32;;;3.80;99.90;;;;;;5069856;28;20575;-78
2021/01/19 09:10:26;;;;;;;7.32;3.65;;;3.70;99.90;;;;;;5072961;28;20760;-78
2021/01/19 09:12:54;;;;;;;15.27;4.65;;;3.80;99.90;;;;;;5074593;28;20202;-78
2021/01/19 09:15:21;;;;;;;9.90;4.47;;;3.80;99.90;;;;;;5076975;28;20226;-78
2021/01/19 09:17:53;;;;;;;10.57;5.00;;;3.90;99.90;;;;;;5077899;28;20225;-79
2021/01/19 09:20:19;;;;;;;8.55;4.30;;;3.80;99.90;;;;;;5076163;28;20206;-79
2021/01/19 09:22:46;;;;;;;9.35;4.80;;;4.30;99.90;;;;;;5074076;28;20287;-79
2021/01/19 09:25:14;;;;;;;7.95;4.05;;;4.00;99.90;;;;;;5072892;28;20689;-78
2021/01/19 09:27:41;;;;;;;7.00;4.03;;;4.30;99.90;;;;;;5074338;28;20208;-78
2021/01/19 09:30:10;;;;;;;7.03;3.78;;;4.00;99.90;;;;;;5073243;28;20205;-78
2021/01/19 09:32:40;;;;;;;8.80;3.78;;;4.10;99.90;;;;;;5073959;28;20206;-78
2021/01/19 09:35:09;;;;;;;7.15;3.80;;;4.30;99.90;;;;;;5072200;28;20278;-79
2021/01/19 09:37:36;;;;;;;6.20;3.40;;;4.30;99.90;;;;;;5072202;28;20206;-79
2021/01/19 09:40:04;;;;;;;6.05;3.35;;;4.30;99.90;;;;;;5065857;28;20201;-78
2021/01/19 09:42:31;;;;;;;8.55;3.50;;;4.40;99.90;;;;;;5071302;28;20230;-78
2021/01/19 09:44:59;;;;;;;14.27;4.00;;;4.40;99.90;;;;;;5067536;28;20205;-79
2021/01/19 09:47:28;;;;;;;8.60;3.65;;;4.50;99.90;;;;;;5053545;28;20206;-79
2021/01/19 09:49:54;;;;;;;10.88;4.40;;;4.50;99.90;;;;;;5052020;28;20206;-79
2021/01/19 09:52:30;;;;;;;8.15;3.40;;;4.40;99.90;;;;;;5071878;28;20209;-79
2021/01/19 09:55:12;;;;;;;5.97;2.80;;;4.40;99.90;;;;;;5073132;28;20246;-82
2021/01/19 09:57:38;;;;;;;11.38;4.50;;;4.40;99.90;;;;;;5054191;28;20209;-80
2021/01/19 10:00:10;;;;;;;10.88;6.05;;;4.20;99.90;;;;;;5051444;28;20221;-80
2021/01/19 10:02:38;;;;;;;7.68;3.67;;;4.30;99.90;;;;;;5051027;28;20230;-81
2021/01/19 10:05:07;;;;;;;10.10;3.63;;;4.40;99.90;;;;;;5059605;28;20213;-79
2021/01/19 10:07:35;;;;;;;11.43;3.78;;;4.40;99.90;;;;;;5065202;28;20210;-79
2021/01/19 10:10:09;;;;;;;7.57;4.25;;;4.50;99.90;;;;;;5054264;28;20209;-79
2021/01/19 10:12:36;;;;;;;7.22;3.95;;;4.40;99.90;;;;;;5049512;28;20252;-79
2021/01/19 10:15:05;;;;;;;10.60;4.95;;;4.70;99.90;;;;;;5051450;28;20206;-80
2021/01/19 10:17:32;;;;;;;10.57;3.53;;;4.80;99.90;;;;;;5054717;28;20234;-79
2021/01/19 10:20:06;;;;;;;8.98;4.38;;;4.50;99.90;;;;;;5067879;28;20198;-79
2021/01/19 10:22:35;;;;;;;8.88;3.88;;;4.70;99.90;;;;;;5070678;28;20343;-79
2021/01/19 10:25:05;;;;;;;13.55;3.60;;;4.70;99.90;;;;;;5071056;28;20208;-79
2021/01/19 10:27:37;;;;;;;9.02;3.95;;;4.70;99.90;;;;;;5068648;28;20205;-79
2021/01/19 10:30:05;;;;;;;10.85;3.50;;;4.80;99.90;;;;;;5054659;28;20217;-79
2021/01/19 10:32:45;;;;;;;9.25;3.50;;;4.70;99.90;;;;;;5056381;28;20202;-79
2021/01/19 10:35:13;;;;;;;8.02;3.63;;;4.60;99.90;;;;;;5056938;28;20234;-79
2021/01/19 10:37:51;;;;;;;9.35;3.55;;;4.90;99.90;;;;;;5056425;28;20293;-79
2021/01/19 10:40:20;;;;;;;22.25;5.03;;;4.90;99.90;;;;;;5056210;28;20226;-79
2021/01/19 10:42:47;;;;;;;9.57;3.85;;;5.00;99.90;;;;;;5059794;28;20249;-80
2021/01/19 10:45:26;;;;;;;9.48;4.72;;;4.80;99.90;;;;;;5075413;28;20222;-80
2021/01/19 10:47:55;;;;;;;9.60;4.63;;;5.00;99.90;;;;;;5067440;28;20206;-80
2021/01/19 10:50:26;;;;;;;8.82;4.35;;;5.00;99.90;;;;;;5078003;28;20243;-80
2021/01/19 10:52:54;;;;;;;8.00;3.92;;;5.00;99.90;;;;;;5071604;28;20203;-80
2021/01/19 10:55:22;;;;;;;7.35;3.28;;;5.20;99.90;;;;;;5063091;28;20712;-80
2021/01/19 10:57:51;;;;;;;7.43;3.47;;;5.10;99.90;;;;;;5067709;28;20828;-80
2021/01/19 11:00:19;;;;;;;7.45;3.55;;;5.00;99.90;;;;;;5059633;28;20210;-78
2021/01/19 11:02:45;;;;;;;9.82;3.92;;;4.90;99.90;;;;;;5055139;28;20226;-77
2021/01/19 11:05:13;;;;;;;9.48;4.15;;;5.20;99.90;;;;;;5063865;28;20680;-76
2021/01/19 11:07:43;;;;;;;8.48;3.80;;;5.30;99.90;;;;;;5071419;28;20206;-76
2021/01/19 11:10:11;;;;;;;8.68;3.63;;;5.10;99.90;;;;;;5068965;28;20260;-79
2021/01/19 11:12:39;;;;;;;7.65;3.50;;;5.20;99.90;;;;;;5059606;28;20210;-79
2021/01/19 11:15:07;;;;;;;8.30;3.78;;;5.40;99.90;;;;;;5071818;28;20224;-78
2021/01/19 11:17:33;;;;;;;7.93;3.50;;;5.30;99.90;;;;;;5061699;28;20283;-79
2021/01/19 11:20:00;;;;;;;7.07;3.40;;;5.00;99.90;;;;;;5061882;28;20263;-79
2021/01/19 11:22:26;;;;;;;9.95;3.95;;;5.10;99.90;;;;;;5059616;28;20237;-79
2021/01/19 11:24:53;;;;;;;7.72;3.28;;;5.20;99.90;;;;;;5060313;28;20283;-79
2021/01/19 11:27:19;;;;;;;7.47;3.90;;;5.00;99.90;;;;;;5068671;28;20228;-78
2021/01/19 11:29:47;;;;;;;8.00;4.38;;;5.20;99.90;;;;;;5073967;28;20201;-80
2021/01/19 11:32:13;;;;;;;8.10;3.92;;;5.00;99.90;;;;;;5058372;28;20335;-77
2021/01/19 11:34:41;;;;;;;8.77;3.67;;;5.20;99.90;;;;;;5057025;28;20202;-74
2021/01/19 11:37:08;;;;;;;9.25;4.47;;;5.50;99.90;;;;;;5057479;28;20325;-74
2021/01/19 11:39:34;;;;;;;6.20;3.38;;;5.50;99.90;;;;;;5066224;28;20209;-74
2021/01/19 11:42:01;;;;;;;11.30;4.18;;;5.70;99.90;;;;;;5071248;28;20218;-75
2021/01/19 11:44:28;;;;;;;6.55;3.60;;;5.60;99.90;;;;;;5056811;28;20447;-75
2021/01/19 11:46:55;;;;;;;11.05;4.10;;;5.60;99.90;;;;;;5055326;28;20475;-73
2021/01/19 11:49:22;;;;;;;7.38;3.92;;;5.50;99.90;;;;;;5070366;28;20206;-74
2021/01/19 11:51:48;;;;;;;7.13;3.05;;;5.70;99.90;;;;;;5052946;28;20202;-79
2021/01/19 11:54:15;;;;;;;9.82;3.78;;;5.70;99.90;;;;;;5063656;28;20209;-78
2021/01/19 11:56:44;;;;;;;12.13;3.40;;;6.00;99.90;;;;;;5071751;28;20237;-76
2021/01/19 11:59:17;;;;;;;10.73;4.00;;;5.80;99.90;;;;;;5053638;28;20207;-78
2021/01/19 12:01:44;;;;;;;9.00;3.55;;;5.90;99.90;;;;;;5052433;28;20222;-76
2021/01/19 12:04:11;;;;;;;6.28;3.78;;;5.90;99.90;;;;;;5076337;28;20206;-81
2021/01/19 12:06:39;;;;;;;9.38;3.50;;;6.00;99.90;;;;;;5072197;28;20804;-82
2021/01/19 12:09:06;;;;;;;10.65;4.50;;;5.90;99.90;;;;;;5064550;28;20210;-81
2021/01/19 12:11:38;;;;;;;8.05;3.95;;;6.00;99.90;;;;;;5061841;28;20198;-75
2021/01/19 12:14:05;;;;;;;11.48;3.88;;;6.10;99.90;;;;;;5055541;28;20206;-80
2021/01/19 12:16:34;;;;;;;5.45;2.90;;;6.20;99.90;;;;;;5072057;28;20299;-80
2021/01/19 12:19:01;;;;;;;5.15;3.28;;;6.00;99.90;;;;;;5066288;28;20572;-80
2021/01/19 12:21:29;;;;;;;8.30;3.47;;;6.30;99.90;;;;;;5065281;28;20225;-82
2021/01/19 12:23:55;;;;;;;6.13;3.25;;;6.30;99.90;;;;;;5060390;28;20214;-74
2021/01/19 12:26:22;;;;;;;5.65;3.05;;;6.40;99.90;;;;;;5058548;28;20279;-75
2021/01/19 12:28:49;;;;;;;8.18;3.50;;;6.40;99.90;;;;;;5063290;28;20224;-75
2021/01/19 12:31:16;;;;;;;7.63;3.55;;;6.40;99.90;;;;;;5053850;28;20548;-75
2021/01/19 12:33:43;;;;;;;12.23;4.13;;;6.60;99.90;;;;;;5061919;28;20214;-75
2021/01/19 12:36:10;;;;;;;7.40;3.60;;;6.60;99.90;;;;;;5058866;28;20260;-75
2021/01/19 12:38:37;;;;;;;5.43;3.15;;;6.70;99.90;;;;;;5057512;28;20211;-75
2021/01/19 12:41:05;;;;;;;7.82;3.80;;;6.70;99.90;;;;;;5070108;28;20214;-74
2021/01/19 12:43:31;;;;;;;4.82;2.90;;;6.70;99.90;;;;;;5071561;28;20205;-79
2021/01/19 12:45:58;;;;;;;5.70;2.90;;;6.80;99.90;;;;;;5073309;28;20233;-81
2021/01/19 12:48:25;;;;;;;7.50;3.45;;;6.70;99.90;;;;;;5071914;28;20213;-79
2021/01/19 12:50:52;;;;;;;6.68;3.25;;;6.70;99.90;;;;;;5071716;28;20575;-79
2021/01/19 12:53:18;;;;;;;6.70;3.00;;;6.60;99.90;;;;;;5069973;28;20202;-79
2021/01/19 12:55:46;;;;;;;5.95;3.08;;;6.80;99.90;;;;;;5052568;28;20232;-79
2021/01/19 12:58:12;;;;;;;7.32;3.20;;;6.90;99.90;;;;;;5063302;28;20233;-80
2021/01/19 13:00:39;;;;;;;6.70;3.35;;;7.00;99.90;;;;;;5059703;28;20210;-80
2021/01/19 13:03:06;;;;;;;7.90;3.78;;;6.80;99.90;;;;;;5059769;28;20252;-80
2021/01/19 13:05:32;;;;;;;6.05;3.17;;;6.70;99.90;;;;;;5058723;28;20287;-79
2021/01/19 13:07:59;;;;;;;7.28;3.03;;;6.90;99.90;;;;;;5063907;28;20233;-80
2021/01/19 13:10:25;;;;;;;5.88;3.40;;;6.70;99.90;;;;;;5076677;28;20206;-81